sensor_id;sensor_type;location;lat;lon;timestamp;P1;durP1;ratioP1;P2;durP2;ratioP2
10874;SDS011;5490;52.200;8.786;2023-02-15T09:55:13;16.70;;;9.67;;
10874;SDS011;5490;52.200;8.786;2023-02-15T09:57:56;15.30;;;8.43;;
10874;SDS011;5490;52.200;8.786;2023-02-15T10:00:31;15.67;;;8.97;;
10874;SDS011;5490;52.200;8.786;2023-02-15T10:06:01;15.50;;;8.77;;
10874;SDS011;5490;52.200;8.786;2023-02-15T10:08:47;18.17;;;9.30;;
10874;SDS011;5490;52.200;8.786;2023-02-15T10:11:29;16.03;;;9.00;;
10874;SDS011;5490;52.200;8.786;2023-02-15T10:17:04;17.67;;;8.90;;
10874;SDS011;5490;52.200;8.786;2023-02-15T10:19:43;17.00;;;9.37;;
10874;SDS011;5490;52.200;8.786;2023-02-15T10:22:24;15.57;;;8.03;;
10874;SDS011;5490;52.200;8.786;2023-02-15T10:25:06;14.00;;;8.47;;
10874;SDS011;5490;52.200;8.786;2023-02-15T10:27:46;14.73;;;7.57;;
10874;SDS011;5490;52.200;8.786;2023-02-15T10:30:14;15.63;;;8.50;;
10874;SDS011;5490;52.200;8.786;2023-02-15T10:32:45;15.50;;;8.60;;
10874;SDS011;5490;52.200;8.786;2023-02-15T10:35:20;13.47;;;7.87;;
10874;SDS011;5490;52.200;8.786;2023-02-15T10:37:54;14.37;;;8.30;;
10874;SDS011;5490;52.200;8.786;2023-02-15T10:40:33;12.37;;;7.33;;
10874;SDS011;5490;52.200;8.786;2023-02-15T10:43:17;10.30;;;7.10;;
10874;SDS011;5490;52.200;8.786;2023-02-15T10:45:58;13.37;;;8.37;;
10874;SDS011;5490;52.200;8.786;2023-02-15T10:48:47;17.27;;;7.37;;
10874;SDS011;5490;52.200;8.786;2023-02-15T10:51:40;16.40;;;8.50;;
10874;SDS011;5490;52.200;8.786;2023-02-15T10:54:21;11.10;;;7.07;;
10874;SDS011;5490;52.200;8.786;2023-02-15T10:56:55;12.40;;;6.33;;
10874;SDS011;5490;52.200;8.786;2023-02-15T10:59:36;16.77;;;6.53;;
10874;SDS011;5490;52.200;8.786;2023-02-15T11:02:15;22.47;;;7.07;;
10874;SDS011;5490;52.200;8.786;2023-02-15T11:04:53;10.63;;;6.30;;
10874;SDS011;5490;52.200;8.786;2023-02-15T11:07:28;9.87;;;5.87;;
10874;SDS011;5490;52.200;8.786;2023-02-15T11:10:00;11.37;;;6.97;;
10874;SDS011;5490;52.200;8.786;2023-02-15T11:12:41;8.70;;;6.27;;
10874;SDS011;5490;52.200;8.786;2023-02-15T11:15:15;12.07;;;6.77;;
10874;SDS011;5490;52.200;8.786;2023-02-15T11:17:46;11.37;;;5.97;;
10874;SDS011;5490;52.200;8.786;2023-02-15T11:20:19;9.30;;;5.37;;
10874;SDS011;5490;52.200;8.786;2023-02-15T11:22:51;17.73;;;6.77;;
10874;SDS011;5490;52.200;8.786;2023-02-15T11:25:19;12.80;;;6.93;;
10874;SDS011;5490;52.200;8.786;2023-02-15T11:27:51;12.67;;;6.70;;
10874;SDS011;5490;52.200;8.786;2023-02-15T11:30:21;9.57;;;6.07;;
10874;SDS011;5490;52.200;8.786;2023-02-15T11:32:50;10.43;;;6.13;;
10874;SDS011;5490;52.200;8.786;2023-02-15T11:35:20;9.83;;;6.10;;
10874;SDS011;5490;52.200;8.786;2023-02-15T11:37:53;10.57;;;6.03;;
10874;SDS011;5490;52.200;8.786;2023-02-15T11:40:25;12.53;;;6.10;;
10874;SDS011;5490;52.200;8.786;2023-02-15T11:42:55;9.13;;;5.30;;
10874;SDS011;5490;52.200;8.786;2023-02-15T11:45:27;7.53;;;5.30;;
10874;SDS011;5490;52.200;8.786;2023-02-15T11:47:56;14.13;;;6.23;;
10874;SDS011;5490;52.200;8.786;2023-02-15T11:50:24;13.93;;;6.73;;
10874;SDS011;5490;52.200;8.786;2023-02-15T11:52:57;11.77;;;6.30;;
10874;SDS011;5490;52.200;8.786;2023-02-15T11:55:26;9.53;;;5.77;;
10874;SDS011;5490;52.200;8.786;2023-02-15T11:57:55;7.47;;;5.53;;
10874;SDS011;5490;52.200;8.786;2023-02-15T12:00:30;11.83;;;5.57;;
10874;SDS011;5490;52.200;8.786;2023-02-15T12:03:02;14.87;;;6.57;;
10874;SDS011;5490;52.200;8.786;2023-02-15T12:05:35;9.63;;;5.80;;
10874;SDS011;5490;52.200;8.786;2023-02-15T12:08:09;10.17;;;5.70;;
10874;SDS011;5490;52.200;8.786;2023-02-15T12:10:42;10.77;;;5.67;;
10874;SDS011;5490;52.200;8.786;2023-02-15T12:13:17;9.83;;;5.20;;
10874;SDS011;5490;52.200;8.786;2023-02-15T12:15:48;11.53;;;6.00;;
10874;SDS011;5490;52.200;8.786;2023-02-15T12:18:17;9.40;;;5.27;;
10874;SDS011;5490;52.200;8.786;2023-02-15T12:20:46;8.87;;;5.93;;
10874;SDS011;5490;52.200;8.786;2023-02-15T12:23:18;8.20;;;5.17;;
10874;SDS011;5490;52.200;8.786;2023-02-15T12:25:49;11.30;;;6.37;;
10874;SDS011;5490;52.200;8.786;2023-02-15T12:28:22;11.67;;;5.97;;
10874;SDS011;5490;52.200;8.786;2023-02-15T12:30:53;8.10;;;4.50;;
10874;SDS011;5490;52.200;8.786;2023-02-15T12:33:25;7.33;;;4.63;;
10874;SDS011;5490;52.200;8.786;2023-02-15T12:35:56;7.97;;;5.47;;
10874;SDS011;5490;52.200;8.786;2023-02-15T12:38:29;9.27;;;5.10;;
10874;SDS011;5490;52.200;8.786;2023-02-15T12:40:59;11.73;;;4.60;;
10874;SDS011;5490;52.200;8.786;2023-02-15T12:43:29;6.80;;;4.50;;
10874;SDS011;5490;52.200;8.786;2023-02-15T12:49:04;11.43;;;4.90;;
10874;SDS011;5490;52.200;8.786;2023-02-15T12:51:42;6.80;;;4.60;;
10874;SDS011;5490;52.200;8.786;2023-02-15T12:54:27;7.27;;;4.33;;
10874;SDS011;5490;52.200;8.786;2023-02-15T12:56:56;13.63;;;5.20;;
10874;SDS011;5490;52.200;8.786;2023-02-15T12:59:24;8.47;;;4.40;;
10874;SDS011;5490;52.200;8.786;2023-02-15T13:01:52;10.67;;;4.57;;
10874;SDS011;5490;52.200;8.786;2023-02-15T13:04:22;8.70;;;4.33;;
10874;SDS011;5490;52.200;8.786;2023-02-15T13:06:53;7.53;;;5.07;;
10874;SDS011;5490;52.200;8.786;2023-02-15T13:09:25;6.63;;;4.20;;
10874;SDS011;5490;52.200;8.786;2023-02-15T13:12:09;6.13;;;3.80;;
10874;SDS011;5490;52.200;8.786;2023-02-15T13:14:38;8.67;;;4.97;;
10874;SDS011;5490;52.200;8.786;2023-02-15T13:17:11;9.87;;;4.80;;
10874;SDS011;5490;52.200;8.786;2023-02-15T13:19:43;9.37;;;4.33;;
10874;SDS011;5490;52.200;8.786;2023-02-15T13:22:15;11.37;;;5.60;;
10874;SDS011;5490;52.200;8.786;2023-02-15T13:24:46;9.63;;;4.97;;
10874;SDS011;5490;52.200;8.786;2023-02-15T13:27:15;7.67;;;4.67;;
10874;SDS011;5490;52.200;8.786;2023-02-15T13:29:45;9.27;;;4.73;;
10874;SDS011;5490;52.200;8.786;2023-02-15T13:32:20;8.87;;;4.73;;
10874;SDS011;5490;52.200;8.786;2023-02-15T13:34:52;9.80;;;5.37;;
10874;SDS011;5490;52.200;8.786;2023-02-15T13:37:22;8.40;;;4.60;;
10874;SDS011;5490;52.200;8.786;2023-02-15T13:40:07;11.27;;;5.43;;
10874;SDS011;5490;52.200;8.786;2023-02-15T13:42:46;7.40;;;4.90;;
10874;SDS011;5490;52.200;8.786;2023-02-15T13:45:25;10.57;;;5.13;;
10874;SDS011;5490;52.200;8.786;2023-02-15T13:48:03;8.67;;;4.73;;
10874;SDS011;5490;52.200;8.786;2023-02-15T13:50:50;8.90;;;4.40;;
10874;SDS011;5490;52.200;8.786;2023-02-15T13:53:35;11.73;;;5.20;;
10874;SDS011;5490;52.200;8.786;2023-02-15T13:56:15;9.43;;;4.97;;
10874;SDS011;5490;52.200;8.786;2023-02-15T13:59:01;8.57;;;5.00;;
10874;SDS011;5490;52.200;8.786;2023-02-15T14:01:52;6.37;;;4.03;;
10874;SDS011;5490;52.200;8.786;2023-02-15T14:04:33;8.47;;;5.77;;
10874;SDS011;5490;52.200;8.786;2023-02-15T14:07:36;11.97;;;5.80;;
10874;SDS011;5490;52.200;8.786;2023-02-15T14:10:21;8.83;;;5.67;;
10874;SDS011;5490;52.200;8.786;2023-02-15T14:13:00;8.03;;;5.60;;
10874;SDS011;5490;52.200;8.786;2023-02-15T14:15:44;14.47;;;5.10;;
10874;SDS011;5490;52.200;8.786;2023-02-15T14:18:18;8.30;;;5.47;;
10874;SDS011;5490;52.200;8.786;2023-02-15T14:20:54;8.40;;;4.17;;
10874;SDS011;5490;52.200;8.786;2023-02-15T14:23:31;6.43;;;4.17;;
10874;SDS011;5490;52.200;8.786;2023-02-15T14:26:10;10.23;;;4.90;;
10874;SDS011;5490;52.200;8.786;2023-02-15T14:28:44;9.03;;;5.43;;
10874;SDS011;5490;52.200;8.786;2023-02-15T14:31:15;10.87;;;4.93;;
10874;SDS011;5490;52.200;8.786;2023-02-15T14:33:47;9.87;;;4.70;;
10874;SDS011;5490;52.200;8.786;2023-02-15T14:36:21;9.77;;;4.93;;
10874;SDS011;5490;52.200;8.786;2023-02-15T14:38:52;6.60;;;4.50;;
10874;SDS011;5490;52.200;8.786;2023-02-15T14:41:26;7.47;;;3.83;;
10874;SDS011;5490;52.200;8.786;2023-02-15T14:44:04;7.80;;;4.63;;
10874;SDS011;5490;52.200;8.786;2023-02-15T14:46:41;11.27;;;5.53;;
10874;SDS011;5490;52.200;8.786;2023-02-15T14:49:14;10.53;;;5.53;;
10874;SDS011;5490;52.200;8.786;2023-02-15T14:52:00;12.90;;;5.73;;
10874;SDS011;5490;52.200;8.786;2023-02-15T14:57:26;9.10;;;5.90;;
10874;SDS011;5490;52.200;8.786;2023-02-15T14:59:58;12.20;;;5.00;;
10874;SDS011;5490;52.200;8.786;2023-02-15T15:02:42;9.40;;;5.43;;
10874;SDS011;5490;52.200;8.786;2023-02-15T15:05:14;8.90;;;5.93;;
10874;SDS011;5490;52.200;8.786;2023-02-15T15:07:47;7.23;;;4.40;;
10874;SDS011;5490;52.200;8.786;2023-02-15T15:10:33;7.73;;;4.57;;
10874;SDS011;5490;52.200;8.786;2023-02-15T15:16:28;9.27;;;5.37;;
10874;SDS011;5490;52.200;8.786;2023-02-15T15:18:57;11.00;;;4.60;;
10874;SDS011;5490;52.200;8.786;2023-02-15T15:27:36;8.27;;;4.60;;
10874;SDS011;5490;52.200;8.786;2023-02-15T15:33:17;7.13;;;3.80;;
10874;SDS011;5490;52.200;8.786;2023-02-15T15:36:12;8.33;;;5.20;;
10874;SDS011;5490;52.200;8.786;2023-02-15T15:38:56;9.83;;;5.53;;
10874;SDS011;5490;52.200;8.786;2023-02-15T15:41:35;9.53;;;5.20;;
10874;SDS011;5490;52.200;8.786;2023-02-15T15:47:20;7.07;;;4.63;;
10874;SDS011;5490;52.200;8.786;2023-02-15T15:50:10;8.20;;;4.13;;
10874;SDS011;5490;52.200;8.786;2023-02-15T15:52:39;8.30;;;5.10;;
10874;SDS011;5490;52.200;8.786;2023-02-15T15:55:14;7.67;;;4.87;;
10874;SDS011;5490;52.200;8.786;2023-02-15T15:57:45;8.13;;;5.30;;
10874;SDS011;5490;52.200;8.786;2023-02-15T16:00:23;10.40;;;5.20;;
10874;SDS011;5490;52.200;8.786;2023-02-15T16:02:56;8.03;;;4.77;;
10874;SDS011;5490;52.200;8.786;2023-02-15T16:05:23;7.97;;;4.50;;
10874;SDS011;5490;52.200;8.786;2023-02-15T16:07:50;8.77;;;3.97;;
10874;SDS011;5490;52.200;8.786;2023-02-15T16:10:21;9.87;;;5.50;;
10874;SDS011;5490;52.200;8.786;2023-02-15T16:12:52;9.27;;;5.63;;
10874;SDS011;5490;52.200;8.786;2023-02-15T16:15:20;7.73;;;4.80;;
10874;SDS011;5490;52.200;8.786;2023-02-15T16:17:50;7.90;;;4.03;;
10874;SDS011;5490;52.200;8.786;2023-02-15T16:20:21;9.10;;;4.67;;
10874;SDS011;5490;52.200;8.786;2023-02-15T16:22:53;9.70;;;4.83;;
10874;SDS011;5490;52.200;8.786;2023-02-15T16:25:31;8.90;;;5.23;;
10874;SDS011;5490;52.200;8.786;2023-02-15T16:28:07;6.40;;;4.40;;
10874;SDS011;5490;52.200;8.786;2023-02-15T16:30:37;15.00;;;6.43;;
10874;SDS011;5490;52.200;8.786;2023-02-15T16:33:07;14.70;;;9.13;;
10874;SDS011;5490;52.200;8.786;2023-02-15T16:35:36;15.57;;;9.53;;
10874;SDS011;5490;52.200;8.786;2023-02-15T16:38:04;13.27;;;8.73;;
10874;SDS011;5490;52.200;8.786;2023-02-15T16:40:38;11.97;;;6.43;;
10874;SDS011;5490;52.200;8.786;2023-02-15T16:43:13;11.03;;;6.60;;
10874;SDS011;5490;52.200;8.786;2023-02-15T16:45:42;12.40;;;7.70;;
10874;SDS011;5490;52.200;8.786;2023-02-15T16:48:12;11.83;;;6.40;;
10874;SDS011;5490;52.200;8.786;2023-02-15T16:50:41;13.20;;;7.47;;
10874;SDS011;5490;52.200;8.786;2023-02-15T16:53:17;12.90;;;6.23;;
10874;SDS011;5490;52.200;8.786;2023-02-15T16:55:48;13.40;;;7.23;;
10874;SDS011;5490;52.200;8.786;2023-02-15T16:58:20;8.83;;;6.37;;
10874;SDS011;5490;52.200;8.786;2023-02-15T17:00:54;8.13;;;5.53;;
10874;SDS011;5490;52.200;8.786;2023-02-15T17:03:23;11.73;;;7.27;;
10874;SDS011;5490;52.200;8.786;2023-02-15T17:05:51;10.47;;;5.47;;
10874;SDS011;5490;52.200;8.786;2023-02-15T17:08:19;8.30;;;4.73;;
10874;SDS011;5490;52.200;8.786;2023-02-15T17:11:01;9.30;;;4.60;;
10874;SDS011;5490;52.200;8.786;2023-02-15T17:13:36;5.40;;;3.73;;
10874;SDS011;5490;52.200;8.786;2023-02-15T17:18:56;7.70;;;4.93;;
10874;SDS011;5490;52.200;8.786;2023-02-15T17:21:25;8.63;;;4.83;;
10874;SDS011;5490;52.200;8.786;2023-02-15T17:23:57;8.90;;;4.53;;
10874;SDS011;5490;52.200;8.786;2023-02-15T17:26:26;7.33;;;4.40;;
10874;SDS011;5490;52.200;8.786;2023-02-15T17:28:57;11.23;;;5.27;;
10874;SDS011;5490;52.200;8.786;2023-02-15T17:31:30;6.73;;;3.90;;
10874;SDS011;5490;52.200;8.786;2023-02-15T17:33:58;8.60;;;3.93;;
10874;SDS011;5490;52.200;8.786;2023-02-15T17:36:26;9.63;;;4.93;;
10874;SDS011;5490;52.200;8.786;2023-02-15T17:39:05;8.23;;;4.30;;
10874;SDS011;5490;52.200;8.786;2023-02-15T17:41:44;8.80;;;4.30;;
10874;SDS011;5490;52.200;8.786;2023-02-15T17:44:13;8.97;;;4.53;;
10874;SDS011;5490;52.200;8.786;2023-02-15T17:46:40;11.47;;;5.50;;
10874;SDS011;5490;52.200;8.786;2023-02-15T17:49:11;12.10;;;6.17;;
10874;SDS011;5490;52.200;8.786;2023-02-15T17:51:44;10.93;;;5.93;;
10874;SDS011;5490;52.200;8.786;2023-02-15T17:54:11;12.23;;;5.70;;
10874;SDS011;5490;52.200;8.786;2023-02-15T17:56:56;8.73;;;4.87;;
10874;SDS011;5490;52.200;8.786;2023-02-15T17:59:28;8.13;;;5.10;;
10874;SDS011;5490;52.200;8.786;2023-02-15T18:01:55;9.57;;;4.43;;
10874;SDS011;5490;52.200;8.786;2023-02-15T18:04:39;8.20;;;5.00;;
10874;SDS011;5490;52.200;8.786;2023-02-15T18:07:24;5.93;;;4.13;;
10874;SDS011;5490;52.200;8.786;2023-02-15T18:10:12;7.70;;;4.27;;
10874;SDS011;5490;52.200;8.786;2023-02-15T18:12:59;9.20;;;4.53;;
10874;SDS011;5490;52.200;8.786;2023-02-15T18:15:27;7.73;;;4.83;;
10874;SDS011;5490;52.200;8.786;2023-02-15T18:17:54;8.07;;;5.07;;
10874;SDS011;5490;52.200;8.786;2023-02-15T18:20:22;6.43;;;4.17;;
10874;SDS011;5490;52.200;8.786;2023-02-15T18:22:52;8.47;;;4.83;;
10874;SDS011;5490;52.200;8.786;2023-02-15T18:25:20;7.17;;;4.63;;
10874;SDS011;5490;52.200;8.786;2023-02-15T18:27:49;10.83;;;4.27;;
10874;SDS011;5490;52.200;8.786;2023-02-15T18:30:17;9.00;;;5.17;;
10874;SDS011;5490;52.200;8.786;2023-02-15T18:36:39;8.70;;;4.93;;
10874;SDS011;5490;52.200;8.786;2023-02-15T18:39:18;9.60;;;5.20;;
10874;SDS011;5490;52.200;8.786;2023-02-15T18:41:51;9.03;;;5.57;;
10874;SDS011;5490;52.200;8.786;2023-02-15T18:44:17;12.37;;;6.03;;
10874;SDS011;5490;52.200;8.786;2023-02-15T18:46:44;11.13;;;5.50;;
10874;SDS011;5490;52.200;8.786;2023-02-15T18:49:11;14.00;;;6.30;;
10874;SDS011;5490;52.200;8.786;2023-02-15T18:51:39;11.47;;;6.73;;
10874;SDS011;5490;52.200;8.786;2023-02-15T18:54:10;9.90;;;6.37;;
10874;SDS011;5490;52.200;8.786;2023-02-15T18:56:42;10.50;;;6.73;;
10874;SDS011;5490;52.200;8.786;2023-02-15T18:59:12;9.03;;;6.00;;
10874;SDS011;5490;52.200;8.786;2023-02-15T19:01:41;9.43;;;5.73;;
10874;SDS011;5490;52.200;8.786;2023-02-15T19:04:08;8.77;;;5.30;;
10874;SDS011;5490;52.200;8.786;2023-02-15T19:06:34;8.23;;;5.33;;
10874;SDS011;5490;52.200;8.786;2023-02-15T19:09:05;10.87;;;6.53;;
10874;SDS011;5490;52.200;8.786;2023-02-15T19:11:37;10.97;;;6.07;;
10874;SDS011;5490;52.200;8.786;2023-02-15T19:14:07;13.50;;;6.90;;
10874;SDS011;5490;52.200;8.786;2023-02-15T19:16:45;10.20;;;6.50;;
10874;SDS011;5490;52.200;8.786;2023-02-15T19:19:14;12.70;;;6.13;;
10874;SDS011;5490;52.200;8.786;2023-02-15T19:21:40;10.93;;;5.77;;
10874;SDS011;5490;52.200;8.786;2023-02-15T19:24:11;11.80;;;5.03;;
10874;SDS011;5490;52.200;8.786;2023-02-15T19:26:40;6.70;;;4.60;;
10874;SDS011;5490;52.200;8.786;2023-02-15T19:29:11;9.77;;;5.27;;
10874;SDS011;5490;52.200;8.786;2023-02-15T19:31:39;10.20;;;5.57;;
10874;SDS011;5490;52.200;8.786;2023-02-15T19:34:15;9.50;;;5.03;;
10874;SDS011;5490;52.200;8.786;2023-02-15T19:36:43;7.27;;;4.87;;
10874;SDS011;5490;52.200;8.786;2023-02-15T19:39:21;8.43;;;5.20;;
10874;SDS011;5490;52.200;8.786;2023-02-15T19:41:50;9.70;;;5.73;;
10874;SDS011;5490;52.200;8.786;2023-02-15T19:44:17;8.93;;;5.40;;
10874;SDS011;5490;52.200;8.786;2023-02-15T19:46:46;11.57;;;6.07;;
10874;SDS011;5490;52.200;8.786;2023-02-15T19:49:14;11.00;;;6.00;;
10874;SDS011;5490;52.200;8.786;2023-02-15T19:51:41;9.00;;;6.20;;
10874;SDS011;5490;52.200;8.786;2023-02-15T19:54:15;10.50;;;6.47;;
10874;SDS011;5490;52.200;8.786;2023-02-15T19:56:56;9.00;;;5.93;;
10874;SDS011;5490;52.200;8.786;2023-02-15T19:59:25;9.90;;;6.00;;
10874;SDS011;5490;52.200;8.786;2023-02-15T20:01:54;8.30;;;6.30;;
10874;SDS011;5490;52.200;8.786;2023-02-15T20:04:21;10.13;;;6.20;;
10874;SDS011;5490;52.200;8.786;2023-02-15T20:06:49;13.37;;;6.70;;
10874;SDS011;5490;52.200;8.786;2023-02-15T20:09:18;11.73;;;6.47;;
10874;SDS011;5490;52.200;8.786;2023-02-15T20:11:49;14.97;;;7.47;;
10874;SDS011;5490;52.200;8.786;2023-02-15T20:14:17;10.77;;;6.17;;
10874;SDS011;5490;52.200;8.786;2023-02-15T20:16:44;12.57;;;6.73;;
10874;SDS011;5490;52.200;8.786;2023-02-15T20:19:12;15.23;;;7.63;;
10874;SDS011;5490;52.200;8.786;2023-02-15T20:21:40;13.20;;;7.60;;
10874;SDS011;5490;52.200;8.786;2023-02-15T20:24:09;16.20;;;8.27;;
10874;SDS011;5490;52.200;8.786;2023-02-15T20:26:40;15.23;;;9.13;;
10874;SDS011;5490;52.200;8.786;2023-02-15T20:29:09;14.10;;;8.33;;
10874;SDS011;5490;52.200;8.786;2023-02-15T20:31:38;14.57;;;8.37;;
10874;SDS011;5490;52.200;8.786;2023-02-15T20:34:04;16.20;;;8.73;;
10874;SDS011;5490;52.200;8.786;2023-02-15T20:36:32;16.47;;;8.83;;
10874;SDS011;5490;52.200;8.786;2023-02-15T20:39:00;17.47;;;8.57;;
10874;SDS011;5490;52.200;8.786;2023-02-15T20:41:31;14.00;;;8.07;;
10874;SDS011;5490;52.200;8.786;2023-02-15T20:44:00;12.53;;;7.27;;
10874;SDS011;5490;52.200;8.786;2023-02-15T20:46:35;14.37;;;7.47;;
10874;SDS011;5490;52.200;8.786;2023-02-15T20:49:02;12.03;;;7.70;;
10874;SDS011;5490;52.200;8.786;2023-02-15T20:51:28;18.00;;;9.93;;
10874;SDS011;5490;52.200;8.786;2023-02-15T20:53:55;20.27;;;9.67;;
10874;SDS011;5490;52.200;8.786;2023-02-15T20:56:23;18.87;;;10.13;;
10874;SDS011;5490;52.200;8.786;2023-02-15T20:58:50;14.23;;;8.73;;
10874;SDS011;5490;52.200;8.786;2023-02-15T21:01:19;15.83;;;8.40;;
10874;SDS011;5490;52.200;8.786;2023-02-15T21:03:47;16.10;;;8.57;;
10874;SDS011;5490;52.200;8.786;2023-02-15T21:06:14;17.00;;;9.23;;
10874;SDS011;5490;52.200;8.786;2023-02-15T21:08:42;14.40;;;8.57;;
10874;SDS011;5490;52.200;8.786;2023-02-15T21:11:11;17.73;;;8.17;;
10874;SDS011;5490;52.200;8.786;2023-02-15T21:13:43;18.30;;;8.93;;
10874;SDS011;5490;52.200;8.786;2023-02-15T21:16:10;11.80;;;7.47;;
10874;SDS011;5490;52.200;8.786;2023-02-15T21:18:37;22.80;;;10.50;;
10874;SDS011;5490;52.200;8.786;2023-02-15T21:21:09;17.13;;;10.67;;
10874;SDS011;5490;52.200;8.786;2023-02-15T21:23:41;20.03;;;10.80;;
10874;SDS011;5490;52.200;8.786;2023-02-15T21:26:10;19.60;;;10.63;;
10874;SDS011;5490;52.200;8.786;2023-02-15T21:28:40;21.93;;;12.50;;
10874;SDS011;5490;52.200;8.786;2023-02-15T21:31:07;22.13;;;12.10;;
10874;SDS011;5490;52.200;8.786;2023-02-15T21:33:41;19.10;;;11.13;;
10874;SDS011;5490;52.200;8.786;2023-02-15T21:36:11;16.50;;;11.53;;
10874;SDS011;5490;52.200;8.786;2023-02-15T21:38:41;20.00;;;11.33;;
10874;SDS011;5490;52.200;8.786;2023-02-15T21:41:09;19.93;;;10.97;;
10874;SDS011;5490;52.200;8.786;2023-02-15T21:43:58;17.27;;;10.50;;
10874;SDS011;5490;52.200;8.786;2023-02-15T21:46:42;16.73;;;11.33;;
10874;SDS011;5490;52.200;8.786;2023-02-15T21:49:26;16.27;;;9.80;;
10874;SDS011;5490;52.200;8.786;2023-02-15T21:51:54;17.63;;;10.33;;
10874;SDS011;5490;52.200;8.786;2023-02-15T21:54:35;18.50;;;10.10;;
10874;SDS011;5490;52.200;8.786;2023-02-15T21:57:02;16.33;;;9.57;;
10874;SDS011;5490;52.200;8.786;2023-02-15T21:59:29;14.93;;;8.50;;
10874;SDS011;5490;52.200;8.786;2023-02-15T22:01:56;17.83;;;9.73;;
10874;SDS011;5490;52.200;8.786;2023-02-15T22:04:24;19.13;;;10.77;;
10874;SDS011;5490;52.200;8.786;2023-02-15T22:06:52;15.93;;;9.87;;
10874;SDS011;5490;52.200;8.786;2023-02-15T22:09:21;19.13;;;9.83;;
10874;SDS011;5490;52.200;8.786;2023-02-15T22:11:49;29.77;;;10.57;;
10874;SDS011;5490;52.200;8.786;2023-02-15T22:14:26;15.53;;;9.87;;
10874;SDS011;5490;52.200;8.786;2023-02-15T22:17:01;16.17;;;9.13;;
10874;SDS011;5490;52.200;8.786;2023-02-15T22:19:28;14.20;;;9.47;;
10874;SDS011;5490;52.200;8.786;2023-02-15T22:21:55;15.73;;;9.90;;
10874;SDS011;5490;52.200;8.786;2023-02-15T22:24:23;14.50;;;8.57;;
10874;SDS011;5490;52.200;8.786;2023-02-15T22:26:50;15.03;;;8.27;;
10874;SDS011;5490;52.200;8.786;2023-02-15T22:29:18;20.07;;;8.07;;
10874;SDS011;5490;52.200;8.786;2023-02-15T22:31:45;15.50;;;9.20;;
10874;SDS011;5490;52.200;8.786;2023-02-15T22:34:16;14.67;;;8.67;;
10874;SDS011;5490;52.200;8.786;2023-02-15T22:36:50;13.37;;;9.13;;
10874;SDS011;5490;52.200;8.786;2023-02-15T22:39:17;14.40;;;8.27;;
10874;SDS011;5490;52.200;8.786;2023-02-15T22:41:47;17.53;;;8.83;;
10874;SDS011;5490;52.200;8.786;2023-02-15T22:44:14;14.40;;;8.40;;
10874;SDS011;5490;52.200;8.786;2023-02-15T22:46:46;12.97;;;7.70;;
10874;SDS011;5490;52.200;8.786;2023-02-15T22:49:13;15.20;;;9.33;;
10874;SDS011;5490;52.200;8.786;2023-02-15T22:51:41;15.17;;;8.60;;
10874;SDS011;5490;52.200;8.786;2023-02-15T22:54:08;14.60;;;9.30;;
10874;SDS011;5490;52.200;8.786;2023-02-15T22:56:36;13.60;;;8.63;;
10874;SDS011;5490;52.200;8.786;2023-02-15T22:59:07;14.20;;;8.67;;
10874;SDS011;5490;52.200;8.786;2023-02-15T23:01:41;17.93;;;8.90;;
10874;SDS011;5490;52.200;8.786;2023-02-15T23:04:08;14.50;;;8.27;;
10874;SDS011;5490;52.200;8.786;2023-02-15T23:06:41;17.63;;;10.07;;
10874;SDS011;5490;52.200;8.786;2023-02-15T23:09:07;14.07;;;7.77;;
10874;SDS011;5490;52.200;8.786;2023-02-15T23:11:34;16.87;;;8.90;;
10874;SDS011;5490;52.200;8.786;2023-02-15T23:14:01;16.37;;;9.07;;
10874;SDS011;5490;52.200;8.786;2023-02-15T23:16:29;14.10;;;8.00;;
10874;SDS011;5490;52.200;8.786;2023-02-15T23:18:56;15.90;;;9.23;;
10874;SDS011;5490;52.200;8.786;2023-02-15T23:21:23;13.20;;;8.37;;
10874;SDS011;5490;52.200;8.786;2023-02-15T23:23:51;15.50;;;8.63;;
10874;SDS011;5490;52.200;8.786;2023-02-15T23:26:21;13.13;;;7.93;;
10874;SDS011;5490;52.200;8.786;2023-02-15T23:28:51;14.70;;;8.53;;
10874;SDS011;5490;52.200;8.786;2023-02-15T23:31:19;16.47;;;10.07;;
10874;SDS011;5490;52.200;8.786;2023-02-15T23:33:54;12.63;;;8.97;;
10874;SDS011;5490;52.200;8.786;2023-02-15T23:36:26;12.97;;;8.47;;
10874;SDS011;5490;52.200;8.786;2023-02-15T23:38:54;13.77;;;8.07;;
10874;SDS011;5490;52.200;8.786;2023-02-15T23:41:23;13.83;;;8.00;;
10874;SDS011;5490;52.200;8.786;2023-02-15T23:43:52;19.33;;;9.40;;
10874;SDS011;5490;52.200;8.786;2023-02-15T23:46:23;17.17;;;8.77;;
10874;SDS011;5490;52.200;8.786;2023-02-15T23:48:53;17.33;;;9.03;;
10874;SDS011;5490;52.200;8.786;2023-02-15T23:51:26;15.77;;;9.27;;
10874;SDS011;5490;52.200;8.786;2023-02-15T23:53:54;15.50;;;7.93;;
10874;SDS011;5490;52.200;8.786;2023-02-15T23:56:21;22.17;;;8.10;;
10874;SDS011;5490;52.200;8.786;2023-02-15T23:58:48;13.47;;;8.70;;
